San Francisco, California
Traffic Map
Current Weather Conditions
San Francisco, California
Scattered Clouds
Scattered Clouds
59°
Feels Like: 59°
Wind Chill: 59° Ceiling: Unl
Heat Index: 59° Visibility: 10mi
Dew Point: 54° Wind: 9mph
Humidity: 83% Direction: 300° (WNW)
Pressure: 30.08in Gusts: 0mph
Raw Report DataKSFO 240656Z 30008KT 10SM FEW008 SCT014 15/12 A3008 RMK AO2 SLP187 T01500122
Traffic Incident Summary
Active as of:
Severity:
Category:
InformationThere was an issue retrieving the traffic information for this location. Please try a different location or try again shortly.
Advertisements
Track Severe Weather on mobile